sensor_id;sensor_type;location;lat;lon;timestamp;P1;durP1;ratioP1;P2;durP2;ratioP2
34765;SDS011;20984;43.508;1.504;2022-10-16T00:02:00;13.68;;;9.98;;
34765;SDS011;20984;43.508;1.504;2022-10-16T00:04:26;12.85;;;9.15;;
34765;SDS011;20984;43.508;1.504;2022-10-16T00:06:52;16.63;;;10.00;;
34765;SDS011;20984;43.508;1.504;2022-10-16T00:09:18;13.40;;;9.25;;
34765;SDS011;20984;43.508;1.504;2022-10-16T00:11:44;16.45;;;9.90;;
34765;SDS011;20984;43.508;1.504;2022-10-16T00:14:11;11.90;;;9.23;;
34765;SDS011;20984;43.508;1.504;2022-10-16T00:16:40;14.25;;;9.15;;
34765;SDS011;20984;43.508;1.504;2022-10-16T00:19:06;10.55;;;8.85;;
34765;SDS011;20984;43.508;1.504;2022-10-16T00:21:32;11.82;;;10.63;;
34765;SDS011;20984;43.508;1.504;2022-10-16T00:24:08;16.27;;;10.40;;
34765;SDS011;20984;43.508;1.504;2022-10-16T00:26:35;14.35;;;9.30;;
34765;SDS011;20984;43.508;1.504;2022-10-16T00:29:02;13.95;;;9.98;;
34765;SDS011;20984;43.508;1.504;2022-10-16T00:31:29;13.90;;;8.77;;
34765;SDS011;20984;43.508;1.504;2022-10-16T00:33:55;12.07;;;9.85;;
34765;SDS011;20984;43.508;1.504;2022-10-16T00:36:21;13.68;;;9.52;;
34765;SDS011;20984;43.508;1.504;2022-10-16T00:38:55;11.77;;;9.57;;
34765;SDS011;20984;43.508;1.504;2022-10-16T00:41:24;13.05;;;9.77;;
34765;SDS011;20984;43.508;1.504;2022-10-16T00:43:55;11.23;;;8.60;;
34765;SDS011;20984;43.508;1.504;2022-10-16T00:46:31;11.70;;;8.90;;
34765;SDS011;20984;43.508;1.504;2022-10-16T00:49:04;12.07;;;10.30;;
34765;SDS011;20984;43.508;1.504;2022-10-16T00:51:32;12.18;;;9.73;;
34765;SDS011;20984;43.508;1.504;2022-10-16T00:54:03;10.48;;;9.05;;
34765;SDS011;20984;43.508;1.504;2022-10-16T00:56:31;12.30;;;9.57;;
34765;SDS011;20984;43.508;1.504;2022-10-16T00:58:58;12.48;;;9.82;;
34765;SDS011;20984;43.508;1.504;2022-10-16T01:01:26;11.75;;;9.75;;
34765;SDS011;20984;43.508;1.504;2022-10-16T01:03:53;13.73;;;9.88;;
34765;SDS011;20984;43.508;1.504;2022-10-16T01:06:23;11.63;;;9.40;;
34765;SDS011;20984;43.508;1.504;2022-10-16T01:14:32;19.92;;;10.55;;
34765;SDS011;20984;43.508;1.504;2022-10-16T01:17:06;10.82;;;9.55;;
34765;SDS011;20984;43.508;1.504;2022-10-16T01:19:38;13.27;;;10.02;;
34765;SDS011;20984;43.508;1.504;2022-10-16T01:22:31;18.60;;;9.70;;
34765;SDS011;20984;43.508;1.504;2022-10-16T01:25:05;21.30;;;10.32;;
34765;SDS011;20984;43.508;1.504;2022-10-16T01:27:36;17.02;;;10.35;;
34765;SDS011;20984;43.508;1.504;2022-10-16T01:30:10;14.05;;;10.63;;
34765;SDS011;20984;43.508;1.504;2022-10-16T01:32:38;16.13;;;11.07;;
34765;SDS011;20984;43.508;1.504;2022-10-16T01:42:58;13.70;;;9.95;;
34765;SDS011;20984;43.508;1.504;2022-10-16T01:45:28;21.73;;;11.07;;
34765;SDS011;20984;43.508;1.504;2022-10-16T01:47:56;18.75;;;10.48;;
34765;SDS011;20984;43.508;1.504;2022-10-16T01:50:25;21.88;;;11.52;;
34765;SDS011;20984;43.508;1.504;2022-10-16T01:52:52;16.73;;;10.13;;
34765;SDS011;20984;43.508;1.504;2022-10-16T01:55:28;15.68;;;10.57;;
34765;SDS011;20984;43.508;1.504;2022-10-16T01:57:57;30.33;;;11.65;;
34765;SDS011;20984;43.508;1.504;2022-10-16T02:00:26;20.08;;;12.15;;
34765;SDS011;20984;43.508;1.504;2022-10-16T02:02:53;15.32;;;11.15;;
34765;SDS011;20984;43.508;1.504;2022-10-16T02:05:26;15.57;;;11.73;;
34765;SDS011;20984;43.508;1.504;2022-10-16T02:07:57;13.02;;;10.38;;
34765;SDS011;20984;43.508;1.504;2022-10-16T02:10:24;17.92;;;11.95;;
34765;SDS011;20984;43.508;1.504;2022-10-16T02:12:53;18.55;;;12.88;;
34765;SDS011;20984;43.508;1.504;2022-10-16T02:15:27;19.30;;;11.63;;
34765;SDS011;20984;43.508;1.504;2022-10-16T02:17:53;20.27;;;11.57;;
34765;SDS011;20984;43.508;1.504;2022-10-16T02:20:20;18.20;;;11.93;;
34765;SDS011;20984;43.508;1.504;2022-10-16T02:22:55;17.63;;;13.45;;
34765;SDS011;20984;43.508;1.504;2022-10-16T02:25:35;19.80;;;12.15;;
34765;SDS011;20984;43.508;1.504;2022-10-16T02:30:52;20.42;;;12.52;;
34765;SDS011;20984;43.508;1.504;2022-10-16T02:33:32;21.65;;;13.05;;
34765;SDS011;20984;43.508;1.504;2022-10-16T02:35:58;16.20;;;12.27;;
34765;SDS011;20984;43.508;1.504;2022-10-16T02:38:25;18.23;;;12.43;;
34765;SDS011;20984;43.508;1.504;2022-10-16T02:40:52;16.77;;;12.95;;
34765;SDS011;20984;43.508;1.504;2022-10-16T02:43:18;14.15;;;11.77;;
34765;SDS011;20984;43.508;1.504;2022-10-16T02:45:44;19.30;;;12.40;;
34765;SDS011;20984;43.508;1.504;2022-10-16T02:48:10;19.77;;;11.82;;
34765;SDS011;20984;43.508;1.504;2022-10-16T02:50:36;17.17;;;12.23;;
34765;SDS011;20984;43.508;1.504;2022-10-16T02:53:01;15.13;;;12.35;;
34765;SDS011;20984;43.508;1.504;2022-10-16T02:55:27;21.42;;;12.18;;
34765;SDS011;20984;43.508;1.504;2022-10-16T02:57:53;22.23;;;13.10;;
34765;SDS011;20984;43.508;1.504;2022-10-16T03:00:19;15.05;;;11.80;;
34765;SDS011;20984;43.508;1.504;2022-10-16T03:02:46;17.83;;;12.50;;
34765;SDS011;20984;43.508;1.504;2022-10-16T03:05:12;24.40;;;12.85;;
34765;SDS011;20984;43.508;1.504;2022-10-16T03:07:39;16.63;;;12.13;;
34765;SDS011;20984;43.508;1.504;2022-10-16T03:10:05;21.38;;;13.13;;
34765;SDS011;20984;43.508;1.504;2022-10-16T03:12:31;26.52;;;12.05;;
34765;SDS011;20984;43.508;1.504;2022-10-16T03:14:57;15.18;;;11.90;;
34765;SDS011;20984;43.508;1.504;2022-10-16T03:17:23;23.20;;;13.20;;
34765;SDS011;20984;43.508;1.504;2022-10-16T03:19:50;17.73;;;11.32;;
34765;SDS011;20984;43.508;1.504;2022-10-16T03:22:16;17.05;;;11.82;;
34765;SDS011;20984;43.508;1.504;2022-10-16T03:24:42;19.17;;;12.02;;
34765;SDS011;20984;43.508;1.504;2022-10-16T03:27:08;18.10;;;13.70;;
34765;SDS011;20984;43.508;1.504;2022-10-16T03:29:34;19.73;;;12.85;;
34765;SDS011;20984;43.508;1.504;2022-10-16T03:32:00;17.40;;;12.65;;
34765;SDS011;20984;43.508;1.504;2022-10-16T03:34:26;21.75;;;11.93;;
34765;SDS011;20984;43.508;1.504;2022-10-16T03:36:52;27.15;;;13.73;;
34765;SDS011;20984;43.508;1.504;2022-10-16T03:39:18;20.65;;;12.95;;
34765;SDS011;20984;43.508;1.504;2022-10-16T03:41:44;21.20;;;11.95;;
34765;SDS011;20984;43.508;1.504;2022-10-16T03:44:11;15.93;;;12.95;;
34765;SDS011;20984;43.508;1.504;2022-10-16T03:46:37;21.70;;;13.50;;
34765;SDS011;20984;43.508;1.504;2022-10-16T03:49:03;17.45;;;12.32;;
34765;SDS011;20984;43.508;1.504;2022-10-16T03:51:29;19.35;;;13.13;;
34765;SDS011;20984;43.508;1.504;2022-10-16T03:53:55;19.67;;;13.45;;
34765;SDS011;20984;43.508;1.504;2022-10-16T03:56:21;21.77;;;12.75;;
34765;SDS011;20984;43.508;1.504;2022-10-16T03:58:47;22.27;;;12.43;;
34765;SDS011;20984;43.508;1.504;2022-10-16T04:01:12;18.23;;;13.07;;
34765;SDS011;20984;43.508;1.504;2022-10-16T04:03:38;23.38;;;13.57;;
34765;SDS011;20984;43.508;1.504;2022-10-16T04:06:04;26.08;;;12.90;;
34765;SDS011;20984;43.508;1.504;2022-10-16T04:08:30;18.73;;;13.40;;
34765;SDS011;20984;43.508;1.504;2022-10-16T04:10:59;18.52;;;12.75;;
34765;SDS011;20984;43.508;1.504;2022-10-16T04:13:25;20.15;;;12.73;;
34765;SDS011;20984;43.508;1.504;2022-10-16T04:15:50;21.48;;;13.07;;
34765;SDS011;20984;43.508;1.504;2022-10-16T04:18:16;14.45;;;11.77;;
34765;SDS011;20984;43.508;1.504;2022-10-16T04:20:42;18.00;;;11.95;;
34765;SDS011;20984;43.508;1.504;2022-10-16T04:23:08;24.05;;;12.70;;
34765;SDS011;20984;43.508;1.504;2022-10-16T04:25:34;17.00;;;11.98;;
34765;SDS011;20984;43.508;1.504;2022-10-16T04:28:00;22.65;;;14.07;;
34765;SDS011;20984;43.508;1.504;2022-10-16T04:30:26;32.70;;;12.18;;
34765;SDS011;20984;43.508;1.504;2022-10-16T04:32:52;24.60;;;12.63;;
34765;SDS011;20984;43.508;1.504;2022-10-16T04:35:18;18.65;;;11.98;;
34765;SDS011;20984;43.508;1.504;2022-10-16T04:37:45;21.80;;;11.95;;
34765;SDS011;20984;43.508;1.504;2022-10-16T04:40:12;21.55;;;13.43;;
34765;SDS011;20984;43.508;1.504;2022-10-16T04:42:38;17.40;;;11.27;;
34765;SDS011;20984;43.508;1.504;2022-10-16T04:45:05;17.13;;;12.43;;
34765;SDS011;20984;43.508;1.504;2022-10-16T04:47:31;20.90;;;11.18;;
34765;SDS011;20984;43.508;1.504;2022-10-16T04:49:57;15.60;;;12.00;;
34765;SDS011;20984;43.508;1.504;2022-10-16T04:52:24;19.55;;;11.82;;
34765;SDS011;20984;43.508;1.504;2022-10-16T04:54:51;17.85;;;10.50;;
34765;SDS011;20984;43.508;1.504;2022-10-16T04:57:17;22.88;;;12.63;;
34765;SDS011;20984;43.508;1.504;2022-10-16T04:59:42;17.00;;;12.20;;
34765;SDS011;20984;43.508;1.504;2022-10-16T05:02:08;21.45;;;12.48;;
34765;SDS011;20984;43.508;1.504;2022-10-16T05:04:34;19.45;;;11.45;;
34765;SDS011;20984;43.508;1.504;2022-10-16T05:07:00;18.90;;;12.55;;
34765;SDS011;20984;43.508;1.504;2022-10-16T05:09:26;19.35;;;12.02;;
34765;SDS011;20984;43.508;1.504;2022-10-16T05:11:51;21.98;;;12.45;;
34765;SDS011;20984;43.508;1.504;2022-10-16T05:14:17;22.35;;;12.15;;
34765;SDS011;20984;43.508;1.504;2022-10-16T05:16:43;23.33;;;13.52;;
34765;SDS011;20984;43.508;1.504;2022-10-16T05:19:09;18.10;;;12.15;;
34765;SDS011;20984;43.508;1.504;2022-10-16T05:21:35;19.58;;;12.30;;
34765;SDS011;20984;43.508;1.504;2022-10-16T05:24:01;21.55;;;12.88;;
34765;SDS011;20984;43.508;1.504;2022-10-16T05:26:27;17.15;;;12.55;;
34765;SDS011;20984;43.508;1.504;2022-10-16T05:28:52;28.80;;;13.63;;
34765;SDS011;20984;43.508;1.504;2022-10-16T05:31:18;20.10;;;12.93;;
34765;SDS011;20984;43.508;1.504;2022-10-16T05:33:44;20.05;;;12.15;;
34765;SDS011;20984;43.508;1.504;2022-10-16T05:36:10;20.98;;;12.63;;
34765;SDS011;20984;43.508;1.504;2022-10-16T05:38:36;16.25;;;12.98;;
34765;SDS011;20984;43.508;1.504;2022-10-16T05:41:03;16.05;;;11.73;;
34765;SDS011;20984;43.508;1.504;2022-10-16T05:43:30;26.80;;;13.40;;
34765;SDS011;20984;43.508;1.504;2022-10-16T05:45:57;22.80;;;13.75;;
34765;SDS011;20984;43.508;1.504;2022-10-16T05:48:25;18.50;;;13.73;;
34765;SDS011;20984;43.508;1.504;2022-10-16T05:51:01;18.83;;;11.65;;
34765;SDS011;20984;43.508;1.504;2022-10-16T05:53:30;24.52;;;13.23;;
34765;SDS011;20984;43.508;1.504;2022-10-16T05:55:57;16.48;;;13.05;;
34765;SDS011;20984;43.508;1.504;2022-10-16T05:58:24;16.65;;;13.05;;
34765;SDS011;20984;43.508;1.504;2022-10-16T06:00:53;20.33;;;14.02;;
34765;SDS011;20984;43.508;1.504;2022-10-16T06:03:23;30.13;;;13.07;;
34765;SDS011;20984;43.508;1.504;2022-10-16T06:05:50;18.17;;;12.63;;
34765;SDS011;20984;43.508;1.504;2022-10-16T06:08:16;18.88;;;12.75;;
34765;SDS011;20984;43.508;1.504;2022-10-16T06:10:43;25.35;;;12.80;;
34765;SDS011;20984;43.508;1.504;2022-10-16T06:13:10;21.08;;;13.75;;
34765;SDS011;20984;43.508;1.504;2022-10-16T06:15:36;28.45;;;14.27;;
34765;SDS011;20984;43.508;1.504;2022-10-16T06:18:04;30.23;;;14.75;;
34765;SDS011;20984;43.508;1.504;2022-10-16T06:20:30;24.50;;;13.82;;
34765;SDS011;20984;43.508;1.504;2022-10-16T06:22:56;32.58;;;14.23;;
34765;SDS011;20984;43.508;1.504;2022-10-16T06:25:25;23.45;;;14.13;;
34765;SDS011;20984;43.508;1.504;2022-10-16T06:27:51;21.73;;;15.35;;
34765;SDS011;20984;43.508;1.504;2022-10-16T06:30:17;19.77;;;13.68;;
34765;SDS011;20984;43.508;1.504;2022-10-16T06:32:43;17.02;;;12.45;;
34765;SDS011;20984;43.508;1.504;2022-10-16T06:35:08;29.95;;;14.38;;
34765;SDS011;20984;43.508;1.504;2022-10-16T06:37:34;27.77;;;13.90;;
34765;SDS011;20984;43.508;1.504;2022-10-16T06:40:00;23.08;;;12.57;;
34765;SDS011;20984;43.508;1.504;2022-10-16T06:42:29;20.80;;;12.80;;
34765;SDS011;20984;43.508;1.504;2022-10-16T06:44:55;18.45;;;12.80;;
34765;SDS011;20984;43.508;1.504;2022-10-16T06:47:20;21.33;;;12.63;;
34765;SDS011;20984;43.508;1.504;2022-10-16T06:49:46;19.00;;;12.52;;
34765;SDS011;20984;43.508;1.504;2022-10-16T06:52:12;18.65;;;11.48;;
34765;SDS011;20984;43.508;1.504;2022-10-16T06:54:38;23.38;;;12.98;;
34765;SDS011;20984;43.508;1.504;2022-10-16T06:57:04;21.63;;;13.52;;
34765;SDS011;20984;43.508;1.504;2022-10-16T06:59:30;21.13;;;13.02;;
34765;SDS011;20984;43.508;1.504;2022-10-16T07:01:55;17.98;;;11.23;;
34765;SDS011;20984;43.508;1.504;2022-10-16T07:04:21;17.50;;;11.50;;
34765;SDS011;20984;43.508;1.504;2022-10-16T07:06:47;15.07;;;11.55;;
34765;SDS011;20984;43.508;1.504;2022-10-16T07:09:13;25.73;;;12.35;;
34765;SDS011;20984;43.508;1.504;2022-10-16T07:11:39;13.50;;;11.43;;
34765;SDS011;20984;43.508;1.504;2022-10-16T07:14:10;19.05;;;10.82;;
34765;SDS011;20984;43.508;1.504;2022-10-16T07:16:42;19.90;;;11.40;;
34765;SDS011;20984;43.508;1.504;2022-10-16T07:19:08;16.90;;;11.35;;
34765;SDS011;20984;43.508;1.504;2022-10-16T07:21:34;17.15;;;11.00;;
34765;SDS011;20984;43.508;1.504;2022-10-16T07:24:00;18.90;;;12.05;;
34765;SDS011;20984;43.508;1.504;2022-10-16T07:26:27;16.42;;;10.40;;
34765;SDS011;20984;43.508;1.504;2022-10-16T07:28:55;14.38;;;11.10;;
34765;SDS011;20984;43.508;1.504;2022-10-16T07:31:23;13.65;;;9.85;;
34765;SDS011;20984;43.508;1.504;2022-10-16T07:33:49;14.77;;;9.00;;
34765;SDS011;20984;43.508;1.504;2022-10-16T07:36:17;15.30;;;10.27;;
34765;SDS011;20984;43.508;1.504;2022-10-16T07:38:43;19.08;;;10.30;;
34765;SDS011;20984;43.508;1.504;2022-10-16T07:41:10;10.27;;;9.15;;
34765;SDS011;20984;43.508;1.504;2022-10-16T07:43:39;16.77;;;10.23;;
34765;SDS011;20984;43.508;1.504;2022-10-16T07:46:05;17.70;;;10.27;;
34765;SDS011;20984;43.508;1.504;2022-10-16T07:48:32;16.88;;;10.48;;
34765;SDS011;20984;43.508;1.504;2022-10-16T07:51:03;20.02;;;10.43;;
34765;SDS011;20984;43.508;1.504;2022-10-16T07:53:30;11.73;;;10.05;;
34765;SDS011;20984;43.508;1.504;2022-10-16T07:56:00;17.05;;;10.48;;
34765;SDS011;20984;43.508;1.504;2022-10-16T07:58:28;15.73;;;9.73;;
34765;SDS011;20984;43.508;1.504;2022-10-16T08:00:54;12.23;;;10.10;;
34765;SDS011;20984;43.508;1.504;2022-10-16T08:03:20;20.45;;;10.45;;
34765;SDS011;20984;43.508;1.504;2022-10-16T08:05:46;14.32;;;10.15;;
34765;SDS011;20984;43.508;1.504;2022-10-16T08:08:13;11.75;;;9.27;;
34765;SDS011;20984;43.508;1.504;2022-10-16T08:10:39;17.90;;;10.48;;
34765;SDS011;20984;43.508;1.504;2022-10-16T08:13:05;13.20;;;9.77;;
34765;SDS011;20984;43.508;1.504;2022-10-16T08:15:31;15.02;;;9.98;;
34765;SDS011;20984;43.508;1.504;2022-10-16T08:17:58;16.08;;;10.13;;
34765;SDS011;20984;43.508;1.504;2022-10-16T08:20:25;15.30;;;9.70;;
34765;SDS011;20984;43.508;1.504;2022-10-16T08:22:52;16.92;;;9.80;;
34765;SDS011;20984;43.508;1.504;2022-10-16T08:25:18;16.98;;;10.15;;
34765;SDS011;20984;43.508;1.504;2022-10-16T08:27:45;19.80;;;9.73;;
34765;SDS011;20984;43.508;1.504;2022-10-16T08:30:10;19.30;;;10.57;;
34765;SDS011;20984;43.508;1.504;2022-10-16T08:32:37;14.45;;;9.93;;
34765;SDS011;20984;43.508;1.504;2022-10-16T08:35:03;20.63;;;10.68;;
34765;SDS011;20984;43.508;1.504;2022-10-16T08:37:32;19.05;;;11.80;;
34765;SDS011;20984;43.508;1.504;2022-10-16T08:39:58;18.08;;;11.05;;
34765;SDS011;20984;43.508;1.504;2022-10-16T08:45:34;20.50;;;11.15;;
34765;SDS011;20984;43.508;1.504;2022-10-16T08:51:10;22.05;;;10.40;;
34765;SDS011;20984;43.508;1.504;2022-10-16T08:53:54;20.75;;;11.52;;
34765;SDS011;20984;43.508;1.504;2022-10-16T08:56:24;17.02;;;9.65;;
34765;SDS011;20984;43.508;1.504;2022-10-16T08:58:51;15.40;;;9.88;;
34765;SDS011;20984;43.508;1.504;2022-10-16T09:01:19;23.55;;;10.80;;
34765;SDS011;20984;43.508;1.504;2022-10-16T09:06:57;20.73;;;11.80;;
34765;SDS011;20984;43.508;1.504;2022-10-16T09:21:14;11.38;;;8.80;;
34765;SDS011;20984;43.508;1.504;2022-10-16T09:23:38;15.57;;;9.63;;
34765;SDS011;20984;43.508;1.504;2022-10-16T09:26:05;17.33;;;10.38;;
34765;SDS011;20984;43.508;1.504;2022-10-16T09:28:34;20.80;;;9.20;;
34765;SDS011;20984;43.508;1.504;2022-10-16T09:31:00;19.67;;;10.18;;
34765;SDS011;20984;43.508;1.504;2022-10-16T09:33:28;13.60;;;9.98;;
34765;SDS011;20984;43.508;1.504;2022-10-16T09:35:58;17.60;;;8.07;;
34765;SDS011;20984;43.508;1.504;2022-10-16T09:38:28;15.48;;;8.45;;
34765;SDS011;20984;43.508;1.504;2022-10-16T09:40:56;16.10;;;8.65;;
34765;SDS011;20984;43.508;1.504;2022-10-16T09:46:00;20.58;;;8.43;;
34765;SDS011;20984;43.508;1.504;2022-10-16T09:48:31;13.90;;;8.23;;
34765;SDS011;20984;43.508;1.504;2022-10-16T09:51:03;11.70;;;7.25;;
34765;SDS011;20984;43.508;1.504;2022-10-16T09:53:39;17.65;;;7.40;;
34765;SDS011;20984;43.508;1.504;2022-10-16T09:56:10;16.05;;;7.75;;
34765;SDS011;20984;43.508;1.504;2022-10-16T09:58:41;16.25;;;8.30;;
34765;SDS011;20984;43.508;1.504;2022-10-16T10:03:40;14.23;;;7.00;;
34765;SDS011;20984;43.508;1.504;2022-10-16T10:06:26;10.13;;;6.45;;
34765;SDS011;20984;43.508;1.504;2022-10-16T10:08:55;13.68;;;7.32;;
34765;SDS011;20984;43.508;1.504;2022-10-16T10:19:47;13.00;;;6.28;;
34765;SDS011;20984;43.508;1.504;2022-10-16T10:24:56;11.35;;;7.13;;
34765;SDS011;20984;43.508;1.504;2022-10-16T10:36:20;12.65;;;6.22;;
34765;SDS011;20984;43.508;1.504;2022-10-16T10:38:45;11.27;;;5.63;;
34765;SDS011;20984;43.508;1.504;2022-10-16T10:46:41;11.70;;;5.95;;
34765;SDS011;20984;43.508;1.504;2022-10-16T10:49:15;11.73;;;5.85;;
34765;SDS011;20984;43.508;1.504;2022-10-16T10:52:02;12.73;;;5.22;;
34765;SDS011;20984;43.508;1.504;2022-10-16T10:57:40;16.02;;;5.78;;
34765;SDS011;20984;43.508;1.504;2022-10-16T11:00:28;12.23;;;5.35;;
34765;SDS011;20984;43.508;1.504;2022-10-16T11:06:05;14.55;;;5.78;;
34765;SDS011;20984;43.508;1.504;2022-10-16T11:14:36;8.90;;;5.90;;
34765;SDS011;20984;43.508;1.504;2022-10-16T11:17:31;10.07;;;5.70;;
34765;SDS011;20984;43.508;1.504;2022-10-16T11:20:05;9.15;;;4.95;;
34765;SDS011;20984;43.508;1.504;2022-10-16T11:22:47;10.13;;;5.20;;
34765;SDS011;20984;43.508;1.504;2022-10-16T11:25:29;13.60;;;5.88;;
34765;SDS011;20984;43.508;1.504;2022-10-16T11:30:43;10.15;;;5.82;;
34765;SDS011;20984;43.508;1.504;2022-10-16T11:33:38;11.73;;;5.78;;
34765;SDS011;20984;43.508;1.504;2022-10-16T11:36:19;10.05;;;6.43;;
34765;SDS011;20984;43.508;1.504;2022-10-16T11:39:01;8.93;;;4.65;;
34765;SDS011;20984;43.508;1.504;2022-10-16T11:41:35;7.47;;;5.07;;
34765;SDS011;20984;43.508;1.504;2022-10-16T11:49:24;11.45;;;5.18;;
34765;SDS011;20984;43.508;1.504;2022-10-16T11:54:53;8.60;;;4.97;;
34765;SDS011;20984;43.508;1.504;2022-10-16T11:57:33;8.80;;;5.57;;
34765;SDS011;20984;43.508;1.504;2022-10-16T12:05:06;9.73;;;5.55;;
34765;SDS011;20984;43.508;1.504;2022-10-16T12:08:02;12.73;;;5.57;;
34765;SDS011;20984;43.508;1.504;2022-10-16T12:10:37;12.90;;;4.88;;
34765;SDS011;20984;43.508;1.504;2022-10-16T12:14:04;7.78;;;4.07;;
34765;SDS011;20984;43.508;1.504;2022-10-16T12:16:50;12.32;;;4.82;;
34765;SDS011;20984;43.508;1.504;2022-10-16T12:18:49;9.43;;;4.03;;
34765;SDS011;20984;43.508;1.504;2022-10-16T12:21:34;11.85;;;4.35;;
34765;SDS011;20984;43.508;1.504;2022-10-16T12:24:01;9.07;;;4.10;;
34765;SDS011;20984;43.508;1.504;2022-10-16T12:26:32;7.35;;;3.80;;
34765;SDS011;20984;43.508;1.504;2022-10-16T12:29:13;7.88;;;3.92;;
34765;SDS011;20984;43.508;1.504;2022-10-16T12:31:52;9.90;;;4.32;;
34765;SDS011;20984;43.508;1.504;2022-10-16T12:34:21;8.40;;;3.67;;
34765;SDS011;20984;43.508;1.504;2022-10-16T12:37:35;6.20;;;3.65;;
34765;SDS011;20984;43.508;1.504;2022-10-16T12:40:04;10.10;;;3.40;;
34765;SDS011;20984;43.508;1.504;2022-10-16T12:42:51;7.53;;;3.35;;
34765;SDS011;20984;43.508;1.504;2022-10-16T12:45:33;5.82;;;3.40;;
34765;SDS011;20984;43.508;1.504;2022-10-16T12:48:00;8.45;;;3.83;;
34765;SDS011;20984;43.508;1.504;2022-10-16T12:50:29;11.13;;;3.13;;
34765;SDS011;20984;43.508;1.504;2022-10-16T12:52:57;12.10;;;3.40;;
34765;SDS011;20984;43.508;1.504;2022-10-16T12:55:24;9.80;;;3.35;;
34765;SDS011;20984;43.508;1.504;2022-10-16T12:58:14;10.27;;;3.00;;
34765;SDS011;20984;43.508;1.504;2022-10-16T13:00:57;18.00;;;3.67;;
34765;SDS011;20984;43.508;1.504;2022-10-16T13:31:04;6.47;;;2.50;;
34765;SDS011;20984;43.508;1.504;2022-10-16T13:33:41;8.35;;;2.88;;
34765;SDS011;20984;43.508;1.504;2022-10-16T13:36:20;5.75;;;3.10;;
34765;SDS011;20984;43.508;1.504;2022-10-16T13:38:48;7.55;;;2.67;;
34765;SDS011;20984;43.508;1.504;2022-10-16T13:41:25;6.88;;;2.58;;
34765;SDS011;20984;43.508;1.504;2022-10-16T13:43:51;9.88;;;3.20;;
34765;SDS011;20984;43.508;1.504;2022-10-16T13:46:24;11.25;;;3.35;;
34765;SDS011;20984;43.508;1.504;2022-10-16T13:48:57;6.60;;;2.72;;
34765;SDS011;20984;43.508;1.504;2022-10-16T13:51:26;6.93;;;3.00;;
34765;SDS011;20984;43.508;1.504;2022-10-16T13:53:54;8.27;;;2.85;;
34765;SDS011;20984;43.508;1.504;2022-10-16T13:56:22;11.23;;;2.78;;
34765;SDS011;20984;43.508;1.504;2022-10-16T13:59:05;8.52;;;3.00;;
34765;SDS011;20984;43.508;1.504;2022-10-16T14:01:51;9.35;;;2.97;;
34765;SDS011;20984;43.508;1.504;2022-10-16T14:04:19;11.52;;;2.90;;
34765;SDS011;20984;43.508;1.504;2022-10-16T14:06:46;13.25;;;3.15;;
34765;SDS011;20984;43.508;1.504;2022-10-16T14:09:23;9.70;;;3.03;;
34765;SDS011;20984;43.508;1.504;2022-10-16T14:11:58;7.63;;;2.67;;
34765;SDS011;20984;43.508;1.504;2022-10-16T14:14:29;6.43;;;2.65;;
34765;SDS011;20984;43.508;1.504;2022-10-16T14:17:00;13.80;;;3.20;;
34765;SDS011;20984;43.508;1.504;2022-10-16T14:19:28;10.43;;;2.80;;
34765;SDS011;20984;43.508;1.504;2022-10-16T14:21:55;7.43;;;2.70;;
34765;SDS011;20984;43.508;1.504;2022-10-16T14:24:41;10.77;;;2.75;;
34765;SDS011;20984;43.508;1.504;2022-10-16T14:27:28;6.90;;;2.70;;
34765;SDS011;20984;43.508;1.504;2022-10-16T14:33:02;8.73;;;2.88;;
34765;SDS011;20984;43.508;1.504;2022-10-16T14:35:34;7.68;;;2.85;;
34765;SDS011;20984;43.508;1.504;2022-10-16T14:38:02;11.82;;;3.42;;
34765;SDS011;20984;43.508;1.504;2022-10-16T14:40:34;10.65;;;3.28;;
34765;SDS011;20984;43.508;1.504;2022-10-16T14:43:02;10.15;;;2.88;;
34765;SDS011;20984;43.508;1.504;2022-10-16T14:45:30;9.82;;;3.00;;
34765;SDS011;20984;43.508;1.504;2022-10-16T14:48:00;5.65;;;2.92;;
34765;SDS011;20984;43.508;1.504;2022-10-16T14:50:29;10.05;;;3.40;;
34765;SDS011;20984;43.508;1.504;2022-10-16T14:52:55;14.98;;;2.85;;
34765;SDS011;20984;43.508;1.504;2022-10-16T14:55:21;12.13;;;3.00;;
34765;SDS011;20984;43.508;1.504;2022-10-16T14:57:47;9.18;;;2.47;;
34765;SDS011;20984;43.508;1.504;2022-10-16T15:00:17;6.25;;;2.78;;
34765;SDS011;20984;43.508;1.504;2022-10-16T15:02:47;10.32;;;3.13;;
34765;SDS011;20984;43.508;1.504;2022-10-16T15:07:42;5.80;;;2.58;;
34765;SDS011;20984;43.508;1.504;2022-10-16T15:10:08;10.13;;;2.92;;
34765;SDS011;20984;43.508;1.504;2022-10-16T15:12:35;8.10;;;2.65;;
34765;SDS011;20984;43.508;1.504;2022-10-16T15:15:01;8.07;;;2.88;;
34765;SDS011;20984;43.508;1.504;2022-10-16T15:17:27;12.63;;;3.38;;
34765;SDS011;20984;43.508;1.504;2022-10-16T15:19:52;15.10;;;2.70;;
34765;SDS011;20984;43.508;1.504;2022-10-16T15:22:18;12.07;;;2.97;;
34765;SDS011;20984;43.508;1.504;2022-10-16T15:24:44;4.47;;;2.42;;
34765;SDS011;20984;43.508;1.504;2022-10-16T15:27:10;13.32;;;3.08;;
34765;SDS011;20984;43.508;1.504;2022-10-16T15:29:36;9.75;;;2.95;;
34765;SDS011;20984;43.508;1.504;2022-10-16T15:32:02;7.35;;;2.83;;
34765;SDS011;20984;43.508;1.504;2022-10-16T15:34:28;7.63;;;2.88;;
34765;SDS011;20984;43.508;1.504;2022-10-16T15:36:54;12.48;;;3.42;;
34765;SDS011;20984;43.508;1.504;2022-10-16T15:39:21;8.20;;;3.20;;
34765;SDS011;20984;43.508;1.504;2022-10-16T15:41:47;10.35;;;2.95;;
34765;SDS011;20984;43.508;1.504;2022-10-16T15:46:44;13.23;;;3.28;;
34765;SDS011;20984;43.508;1.504;2022-10-16T15:49:10;8.77;;;3.17;;
34765;SDS011;20984;43.508;1.504;2022-10-16T15:51:40;10.73;;;2.53;;
34765;SDS011;20984;43.508;1.504;2022-10-16T15:54:07;6.23;;;3.00;;
34765;SDS011;20984;43.508;1.504;2022-10-16T15:56:33;9.95;;;3.60;;
34765;SDS011;20984;43.508;1.504;2022-10-16T15:59:01;6.30;;;3.03;;
34765;SDS011;20984;43.508;1.504;2022-10-16T16:01:28;9.52;;;3.95;;
34765;SDS011;20984;43.508;1.504;2022-10-16T16:03:56;16.08;;;4.15;;
34765;SDS011;20984;43.508;1.504;2022-10-16T16:06:22;12.68;;;3.78;;
34765;SDS011;20984;43.508;1.504;2022-10-16T16:08:49;9.80;;;3.60;;
34765;SDS011;20984;43.508;1.504;2022-10-16T16:11:16;12.20;;;3.40;;
34765;SDS011;20984;43.508;1.504;2022-10-16T16:13:42;10.50;;;3.47;;
34765;SDS011;20984;43.508;1.504;2022-10-16T16:16:09;7.90;;;3.47;;
34765;SDS011;20984;43.508;1.504;2022-10-16T16:18:37;8.57;;;3.28;;
34765;SDS011;20984;43.508;1.504;2022-10-16T16:21:03;7.85;;;3.75;;
34765;SDS011;20984;43.508;1.504;2022-10-16T16:23:30;9.38;;;3.22;;
34765;SDS011;20984;43.508;1.504;2022-10-16T16:28:31;11.23;;;3.42;;
34765;SDS011;20984;43.508;1.504;2022-10-16T16:30:57;10.57;;;3.85;;
34765;SDS011;20984;43.508;1.504;2022-10-16T16:33:22;11.85;;;3.80;;
34765;SDS011;20984;43.508;1.504;2022-10-16T16:35:49;11.52;;;4.40;;
34765;SDS011;20984;43.508;1.504;2022-10-16T16:38:15;12.52;;;3.70;;
34765;SDS011;20984;43.508;1.504;2022-10-16T16:40:40;12.05;;;4.38;;
34765;SDS011;20984;43.508;1.504;2022-10-16T16:43:06;17.52;;;4.75;;
34765;SDS011;20984;43.508;1.504;2022-10-16T16:45:35;10.85;;;3.85;;
34765;SDS011;20984;43.508;1.504;2022-10-16T16:48:01;11.70;;;3.63;;
34765;SDS011;20984;43.508;1.504;2022-10-16T16:50:27;9.20;;;3.45;;
34765;SDS011;20984;43.508;1.504;2022-10-16T16:52:52;11.80;;;4.25;;
34765;SDS011;20984;43.508;1.504;2022-10-16T16:55:18;10.02;;;3.55;;
34765;SDS011;20984;43.508;1.504;2022-10-16T16:57:44;10.65;;;3.88;;